ORB674R GVSV-LPLA
Flight info
| Callsign | ORB674R |
|---|---|
| Flight time | 3h 38m |
| Altitude | 43000 |
| Route | EVKAS1U EVKAS DCT OBOMO/M084F410 DCT 26N028W 31N029W 36N029W DCT LM |
| Aircraft | C700/M-SBDGHM1RWXY/LB2 |
Departure
| Time | 2026-04-28 04:24 |
|---|---|
| Airport | Cesaria Evora International Airport (GVSV) |
Arrival
| Time | 2026-04-28 08:02 |
|---|---|
| Airport | Lajes Airport (LPLA) |
| Time | Latitude | Longitude | Altitude | Speed | Heading |
|---|---|---|---|---|---|
| 2026-04-28 04:10 | 16.83527 | -25.05578 | 52 ft | 0 kts | 77° |
| 2026-04-28 04:19 | 16.83534 | -25.05569 | 44 ft | 5 kts | 34° |
| 2026-04-28 04:19 | 16.83518 | -25.05591 | 48 ft | 10 kts | 171° |
| 2026-04-28 04:20 | 16.83452 | -25.05595 | 61 ft | 13 kts | 225° |
| 2026-04-28 04:20 | 16.83395 | -25.05690 | 57 ft | 18 kts | 239° |
| 2026-04-28 04:20 | 16.83313 | -25.05819 | 52 ft | 24 kts | 236° |
| 2026-04-28 04:20 | 16.83220 | -25.05968 | 44 ft | 22 kts | 238° |
| 2026-04-28 04:21 | 16.83133 | -25.06111 | 38 ft | 25 kts | 238° |
| 2026-04-28 04:21 | 16.83033 | -25.06275 | 30 ft | 28 kts | 237° |
| 2026-04-28 04:21 | 16.82903 | -25.06366 | 28 ft | 19 kts | 173° |
| 2026-04-28 04:21 | 16.82825 | -25.06313 | 28 ft | 12 kts | 117° |
| 2026-04-28 04:22 | 16.82823 | -25.06239 | 23 ft | 6 kts | 66° |
| 2026-04-28 04:22 | 16.82841 | -25.06209 | 24 ft | 3 kts | 63° |
| 2026-04-28 04:22 | 16.82852 | -25.06188 | 27 ft | 4 kts | 57° |
| 2026-04-28 04:22 | 16.82869 | -25.06167 | 27 ft | 4 kts | 52° |
| 2026-04-28 04:23 | 16.82897 | -25.06128 | 29 ft | 15 kts | 52° |
| 2026-04-28 04:23 | 16.83023 | -25.05950 | 39 ft | 48 kts | 53° |
| 2026-04-28 04:23 | 16.83312 | -25.05547 | 58 ft | 95 kts | 53° |
| 2026-04-28 04:23 | 16.83828 | -25.04833 | 192 ft | 145 kts | 52° |
| 2026-04-28 04:24 | 16.84473 | -25.03974 | 947 ft | 153 kts | 50° |
| 2026-04-28 04:24 | 16.85170 | -25.03050 | 2007 ft | 162 kts | 52° |
| 2026-04-28 04:24 | 16.85771 | -25.02064 | 3309 ft | 168 kts | 58° |
| 2026-04-28 04:24 | 16.86412 | -25.00893 | 4005 ft | 200 kts | 58° |
| 2026-04-28 04:25 | 16.87101 | -24.99625 | 4755 ft | 213 kts | 59° |
| 2026-04-28 04:25 | 16.87845 | -24.98251 | 5366 ft | 217 kts | 59° |
| 2026-04-28 04:25 | 16.88623 | -24.96821 | 5984 ft | 230 kts | 58° |
| 2026-04-28 04:25 | 16.89426 | -24.95352 | 6597 ft | 239 kts | 57° |
| 2026-04-28 04:26 | 16.90249 | -24.93856 | 7184 ft | 238 kts | 58° |
| 2026-04-28 04:26 | 16.91337 | -24.92541 | 7765 ft | 239 kts | 31° |
| 2026-04-28 04:26 | 16.92806 | -24.91751 | 8359 ft | 241 kts | 17° |
| 2026-04-28 04:26 | 16.94403 | -24.91276 | 8957 ft | 241 kts | 8° |
| 2026-04-28 04:27 | 16.96100 | -24.91070 | 8976 ft | 234 kts | 351° |
| 2026-04-28 04:27 | 16.97647 | -24.91210 | 9609 ft | 228 kts | 349° |
| 2026-04-28 04:27 | 16.99315 | -24.91335 | 10219 ft | 253 kts | 353° |
| 2026-04-28 04:27 | 17.01116 | -24.91350 | 10816 ft | 265 kts | 356° |
| 2026-04-28 04:28 | 17.02959 | -24.91324 | 11415 ft | 267 kts | 356° |
| 2026-04-28 04:28 | 17.04838 | -24.91330 | 12037 ft | 270 kts | 355° |
| 2026-04-28 04:28 | 17.06744 | -24.91353 | 12666 ft | 282 kts | 355° |
| 2026-04-28 04:28 | 17.08743 | -24.91371 | 13315 ft | 287 kts | 356° |
| 2026-04-28 04:29 | 17.10732 | -24.91377 | 13952 ft | 289 kts | 356° |
| 2026-04-28 04:29 | 17.12760 | -24.91389 | 14529 ft | 291 kts | 356° |
| 2026-04-28 04:29 | 17.14785 | -24.91403 | 15111 ft | 294 kts | 356° |
| 2026-04-28 04:29 | 17.16827 | -24.91417 | 15720 ft | 292 kts | 356° |
| 2026-04-28 04:30 | 17.18863 | -24.91429 | 16329 ft | 294 kts | 356° |
| 2026-04-28 04:30 | 17.20923 | -24.91443 | 16949 ft | 296 kts | 356° |
| 2026-04-28 04:30 | 17.22979 | -24.91455 | 17574 ft | 295 kts | 356° |
| 2026-04-28 04:30 | 17.25047 | -24.91469 | 18216 ft | 299 kts | 355° |
| 2026-04-28 04:31 | 17.27132 | -24.91483 | 18790 ft | 300 kts | 355° |
| 2026-04-28 04:31 | 17.29223 | -24.91496 | 19356 ft | 302 kts | 355° |
| 2026-04-28 04:31 | 17.31345 | -24.91511 | 19931 ft | 307 kts | 355° |
| 2026-04-28 04:31 | 17.33488 | -24.91524 | 20517 ft | 309 kts | 355° |
| 2026-04-28 04:32 | 17.35645 | -24.91537 | 21118 ft | 311 kts | 355° |
| 2026-04-28 04:32 | 17.37793 | -24.91744 | 21722 ft | 310 kts | 345° |
| 2026-04-28 04:32 | 17.39859 | -24.92401 | 22347 ft | 311 kts | 334° |
| 2026-04-28 04:32 | 17.41767 | -24.93472 | 22988 ft | 312 kts | 323° |
| 2026-04-28 04:33 | 17.43441 | -24.94918 | 23631 ft | 313 kts | 313° |
| 2026-04-28 04:33 | 17.44815 | -24.96689 | 24184 ft | 315 kts | 302° |
| 2026-04-28 04:33 | 17.45834 | -24.98724 | 24740 ft | 317 kts | 291° |
| 2026-04-28 04:33 | 17.46563 | -25.00902 | 25312 ft | 317 kts | 289° |
| 2026-04-28 04:34 | 17.47278 | -25.03050 | 25890 ft | 316 kts | 290° |
| 2026-04-28 04:34 | 17.48012 | -25.05223 | 26473 ft | 317 kts | 289° |
| 2026-04-28 04:34 | 17.48746 | -25.07418 | 27072 ft | 321 kts | 289° |
| 2026-04-28 04:34 | 17.49486 | -25.09641 | 27663 ft | 325 kts | 289° |
| 2026-04-28 04:35 | 17.50231 | -25.11879 | 28279 ft | 325 kts | 289° |
| 2026-04-28 04:35 | 17.50976 | -25.14109 | 28886 ft | 325 kts | 289° |
| 2026-04-28 04:35 | 17.51724 | -25.16351 | 29513 ft | 327 kts | 289° |
| 2026-04-28 04:35 | 17.52476 | -25.18608 | 30161 ft | 329 kts | 289° |
| 2026-04-28 04:36 | 17.53232 | -25.20878 | 30716 ft | 331 kts | 289° |
| 2026-04-28 04:36 | 17.53992 | -25.23159 | 31277 ft | 332 kts | 289° |
| 2026-04-28 04:36 | 17.54753 | -25.25447 | 31857 ft | 333 kts | 289° |
| 2026-04-28 04:36 | 17.55516 | -25.27739 | 32449 ft | 333 kts | 289° |
| 2026-04-28 04:37 | 17.56279 | -25.30032 | 33037 ft | 333 kts | 289° |
| 2026-04-28 04:37 | 17.57042 | -25.32328 | 33591 ft | 335 kts | 289° |
| 2026-04-28 04:37 | 17.57822 | -25.34675 | 33776 ft | 345 kts | 289° |
| 2026-04-28 04:37 | 17.58612 | -25.37053 | 34267 ft | 346 kts | 289° |
| 2026-04-28 04:38 | 17.59406 | -25.39444 | 34683 ft | 348 kts | 289° |
| 2026-04-28 04:38 | 17.60204 | -25.41850 | 35105 ft | 351 kts | 289° |
| 2026-04-28 04:38 | 17.61007 | -25.44271 | 35511 ft | 353 kts | 289° |
| 2026-04-28 04:38 | 17.61814 | -25.46704 | 35914 ft | 355 kts | 289° |
| 2026-04-28 04:39 | 17.62628 | -25.49162 | 36311 ft | 357 kts | 289° |
| 2026-04-28 04:39 | 17.63444 | -25.51625 | 36685 ft | 360 kts | 289° |
| 2026-04-28 04:39 | 17.64269 | -25.54114 | 37047 ft | 362 kts | 288° |
| 2026-04-28 04:39 | 17.65083 | -25.56574 | 37395 ft | 364 kts | 288° |
| 2026-04-28 04:40 | 17.65914 | -25.59086 | 37723 ft | 366 kts | 288° |
| 2026-04-28 04:40 | 17.66749 | -25.61612 | 38038 ft | 368 kts | 288° |
| 2026-04-28 04:40 | 17.67588 | -25.64151 | 38335 ft | 369 kts | 288° |
| 2026-04-28 04:40 | 17.68431 | -25.66702 | 38620 ft | 371 kts | 288° |
| 2026-04-28 04:41 | 17.69277 | -25.69266 | 38863 ft | 373 kts | 288° |
| 2026-04-28 04:41 | 17.70127 | -25.71842 | 39086 ft | 374 kts | 288° |
| 2026-04-28 04:41 | 17.70980 | -25.74428 | 39289 ft | 376 kts | 288° |
| 2026-04-28 04:41 | 17.71836 | -25.77025 | 39496 ft | 378 kts | 288° |
| 2026-04-28 04:42 | 17.72695 | -25.79633 | 39695 ft | 379 kts | 288° |
| 2026-04-28 04:42 | 17.73557 | -25.82251 | 39880 ft | 380 kts | 288° |
| 2026-04-28 04:42 | 17.74420 | -25.84871 | 40093 ft | 381 kts | 288° |
| 2026-04-28 04:42 | 17.75285 | -25.87501 | 40342 ft | 380 kts | 288° |
| 2026-04-28 04:43 | 17.76146 | -25.90116 | 40578 ft | 380 kts | 288° |
| 2026-04-28 04:43 | 17.77084 | -25.92714 | 40810 ft | 380 kts | 292° |
| 2026-04-28 04:43 | 17.78317 | -25.95167 | 41038 ft | 382 kts | 298° |
| 2026-04-28 04:43 | 17.79833 | -25.97463 | 41252 ft | 384 kts | 305° |
| 2026-04-28 04:44 | 17.81618 | -25.99562 | 41469 ft | 387 kts | 311° |
| 2026-04-28 04:44 | 17.83655 | -26.01430 | 41668 ft | 391 kts | 317° |
| 2026-04-28 04:44 | 17.85921 | -26.03035 | 41875 ft | 395 kts | 324° |
| 2026-04-28 04:44 | 17.88392 | -26.04343 | 42077 ft | 401 kts | 331° |
| 2026-04-28 04:45 | 17.91038 | -26.05322 | 42273 ft | 406 kts | 338° |
| 2026-04-28 04:45 | 17.93764 | -26.06102 | 42457 ft | 406 kts | 338° |
| 2026-04-28 04:45 | 17.96486 | -26.06902 | 42636 ft | 406 kts | 337° |
| 2026-04-28 04:45 | 17.99203 | -26.07711 | 42819 ft | 406 kts | 337° |
| 2026-04-28 04:46 | 18.01923 | -26.08507 | 42999 ft | 406 kts | 337° |
| 2026-04-28 04:46 | 18.04643 | -26.09298 | 43168 ft | 405 kts | 337° |
| 2026-04-28 04:46 | 18.07360 | -26.10094 | 43336 ft | 405 kts | 337° |
| 2026-04-28 04:46 | 18.10038 | -26.10882 | 43495 ft | 405 kts | 337° |
| 2026-04-28 04:47 | 18.12788 | -26.11690 | 43652 ft | 405 kts | 337° |
| 2026-04-28 04:47 | 18.15465 | -26.12474 | 43808 ft | 405 kts | 337° |
| 2026-04-28 04:47 | 18.18176 | -26.13269 | 43950 ft | 404 kts | 337° |
| 2026-04-28 04:47 | 18.20884 | -26.14065 | 44082 ft | 405 kts | 337° |
| 2026-04-28 04:48 | 18.23607 | -26.14867 | 44078 ft | 408 kts | 337° |
| 2026-04-28 04:48 | 18.29112 | -26.16484 | 44091 ft | 414 kts | 337° |
| 2026-04-28 04:49 | 18.34694 | -26.18126 | 44088 ft | 420 kts | 337° |
| 2026-04-28 04:49 | 18.40352 | -26.19791 | 44090 ft | 425 kts | 337° |
| 2026-04-28 04:50 | 18.46090 | -26.21481 | 44099 ft | 431 kts | 337° |
| 2026-04-28 04:50 | 18.51897 | -26.23192 | 44099 ft | 436 kts | 337° |
| 2026-04-28 04:51 | 18.57760 | -26.24921 | 44102 ft | 439 kts | 337° |
| 2026-04-28 04:51 | 18.63658 | -26.26661 | 44097 ft | 441 kts | 337° |
| 2026-04-28 04:52 | 18.69575 | -26.28408 | 44097 ft | 442 kts | 337° |
| 2026-04-28 04:52 | 18.75504 | -26.30160 | 44100 ft | 443 kts | 337° |
| 2026-04-28 04:53 | 18.81442 | -26.31917 | 44104 ft | 443 kts | 337° |
| 2026-04-28 04:53 | 18.87388 | -26.33677 | 44100 ft | 444 kts | 336° |
| 2026-04-28 04:54 | 18.93302 | -26.35426 | 44093 ft | 439 kts | 336° |
| 2026-04-28 04:54 | 18.99129 | -26.37157 | 44096 ft | 438 kts | 336° |
| 2026-04-28 04:55 | 19.05010 | -26.38900 | 44101 ft | 439 kts | 336° |
| 2026-04-28 04:55 | 19.10900 | -26.40649 | 44098 ft | 440 kts | 336° |
| 2026-04-28 04:56 | 19.16801 | -26.42402 | 44100 ft | 441 kts | 336° |
| 2026-04-28 04:56 | 19.22703 | -26.44157 | 44108 ft | 441 kts | 336° |
| 2026-04-28 04:57 | 19.28609 | -26.45912 | 44102 ft | 439 kts | 336° |
| 2026-04-28 04:57 | 19.34458 | -26.47654 | 44103 ft | 436 kts | 336° |
| 2026-04-28 04:58 | 19.40302 | -26.49397 | 44106 ft | 436 kts | 336° |
| 2026-04-28 04:58 | 19.46139 | -26.51136 | 44107 ft | 435 kts | 336° |
| 2026-04-28 04:59 | 19.51968 | -26.52876 | 44104 ft | 435 kts | 336° |
| 2026-04-28 04:59 | 19.57793 | -26.54615 | 44102 ft | 435 kts | 335° |
| 2026-04-28 05:00 | 19.63613 | -26.56355 | 44109 ft | 434 kts | 335° |
| 2026-04-28 05:00 | 19.69429 | -26.58094 | 44113 ft | 434 kts | 335° |
| 2026-04-28 05:01 | 19.75243 | -26.59835 | 44108 ft | 434 kts | 335° |
| 2026-04-28 05:01 | 19.81015 | -26.61563 | 44109 ft | 434 kts | 335° |
| 2026-04-28 05:02 | 19.86863 | -26.63317 | 44109 ft | 434 kts | 335° |
| 2026-04-28 05:02 | 19.92635 | -26.65048 | 44107 ft | 434 kts | 335° |
| 2026-04-28 05:03 | 19.98437 | -26.66790 | 44107 ft | 434 kts | 335° |
| 2026-04-28 05:03 | 20.04242 | -26.68534 | 44103 ft | 433 kts | 335° |
| 2026-04-28 05:04 | 20.10044 | -26.70279 | 44105 ft | 433 kts | 335° |
| 2026-04-28 05:04 | 20.15844 | -26.72024 | 44107 ft | 433 kts | 335° |
| 2026-04-28 05:05 | 20.21639 | -26.73769 | 44107 ft | 433 kts | 334° |
| 2026-04-28 05:05 | 20.27430 | -26.75514 | 44114 ft | 432 kts | 334° |
| 2026-04-28 05:06 | 20.32243 | -26.76966 | 44108 ft | 432 kts | 334° |
| 2026-04-28 05:06 | 20.38021 | -26.78710 | 44111 ft | 432 kts | 334° |
| 2026-04-28 05:07 | 20.43803 | -26.80456 | 44110 ft | 432 kts | 334° |
| 2026-04-28 05:07 | 20.49582 | -26.82203 | 44111 ft | 431 kts | 334° |
| 2026-04-28 05:08 | 20.55357 | -26.83950 | 44106 ft | 431 kts | 334° |
| 2026-04-28 05:08 | 20.61130 | -26.85698 | 44107 ft | 431 kts | 334° |
| 2026-04-28 05:09 | 20.66899 | -26.87446 | 44109 ft | 431 kts | 334° |
| 2026-04-28 05:09 | 20.72668 | -26.89195 | 44112 ft | 431 kts | 334° |
| 2026-04-28 05:10 | 20.78437 | -26.90946 | 44110 ft | 431 kts | 334° |
| 2026-04-28 05:10 | 20.84205 | -26.92698 | 44112 ft | 431 kts | 334° |
| 2026-04-28 05:11 | 20.89973 | -26.94451 | 44114 ft | 431 kts | 334° |
| 2026-04-28 05:11 | 20.95700 | -26.96193 | 44110 ft | 431 kts | 334° |
| 2026-04-28 05:12 | 21.01502 | -26.97959 | 44112 ft | 430 kts | 334° |
| 2026-04-28 05:12 | 21.07263 | -26.99715 | 44115 ft | 430 kts | 334° |
| 2026-04-28 05:13 | 21.13023 | -27.01471 | 44115 ft | 430 kts | 334° |
| 2026-04-28 05:13 | 21.18774 | -27.03226 | 44114 ft | 430 kts | 334° |
| 2026-04-28 05:14 | 21.24490 | -27.04972 | 44120 ft | 430 kts | 334° |
| 2026-04-28 05:14 | 21.30242 | -27.06730 | 44118 ft | 430 kts | 334° |
| 2026-04-28 05:15 | 21.35990 | -27.08489 | 44112 ft | 429 kts | 334° |
| 2026-04-28 05:15 | 21.41739 | -27.10249 | 44113 ft | 430 kts | 334° |
| 2026-04-28 05:16 | 21.47492 | -27.12012 | 44114 ft | 430 kts | 334° |
| 2026-04-28 05:16 | 21.53248 | -27.13777 | 44118 ft | 430 kts | 334° |
| 2026-04-28 05:17 | 21.61883 | -27.16428 | 44115 ft | 430 kts | 334° |
| 2026-04-28 05:17 | 21.67639 | -27.18197 | 44118 ft | 430 kts | 334° |
| 2026-04-28 05:18 | 21.73395 | -27.19967 | 44117 ft | 430 kts | 334° |
| 2026-04-28 05:18 | 21.79154 | -27.21740 | 44119 ft | 431 kts | 334° |
| 2026-04-28 05:19 | 21.84911 | -27.23514 | 44118 ft | 431 kts | 334° |
| 2026-04-28 05:19 | 21.90641 | -27.25280 | 44119 ft | 431 kts | 334° |
| 2026-04-28 05:20 | 21.96411 | -27.27061 | 44120 ft | 431 kts | 334° |
| 2026-04-28 05:20 | 22.02185 | -27.28844 | 44119 ft | 432 kts | 334° |
| 2026-04-28 05:21 | 22.07920 | -27.30610 | 44121 ft | 419 kts | 334° |
| 2026-04-28 05:21 | 22.13521 | -27.32355 | 44121 ft | 421 kts | 334° |
| 2026-04-28 05:22 | 22.19187 | -27.34105 | 44115 ft | 425 kts | 334° |
| 2026-04-28 05:22 | 22.24878 | -27.35867 | 44119 ft | 425 kts | 334° |
| 2026-04-28 05:23 | 22.30524 | -27.37617 | 44117 ft | 420 kts | 334° |
| 2026-04-28 05:23 | 22.36153 | -27.39369 | 44119 ft | 423 kts | 334° |
| 2026-04-28 05:24 | 22.41826 | -27.41128 | 44124 ft | 424 kts | 334° |
| 2026-04-28 05:24 | 22.47461 | -27.42879 | 44125 ft | 419 kts | 334° |
| 2026-04-28 05:25 | 22.53025 | -27.44615 | 44121 ft | 420 kts | 334° |
| 2026-04-28 05:25 | 22.58672 | -27.46372 | 44121 ft | 424 kts | 334° |
| 2026-04-28 05:26 | 22.64319 | -27.48129 | 44115 ft | 420 kts | 334° |
| 2026-04-28 05:26 | 22.69908 | -27.49876 | 44120 ft | 418 kts | 334° |
| 2026-04-28 05:27 | 22.75723 | -27.51090 | 44122 ft | 433 kts | 342° |
| 2026-04-28 05:27 | 22.81702 | -27.51967 | 44126 ft | 431 kts | 342° |
| 2026-04-28 05:28 | 22.87611 | -27.52840 | 44130 ft | 427 kts | 342° |
| 2026-04-28 05:28 | 22.93528 | -27.53714 | 44124 ft | 431 kts | 342° |
| 2026-04-28 05:29 | 22.99481 | -27.54589 | 44128 ft | 430 kts | 342° |
| 2026-04-28 05:29 | 23.05389 | -27.55461 | 44122 ft | 427 kts | 342° |
| 2026-04-28 05:30 | 23.11278 | -27.56335 | 44127 ft | 429 kts | 342° |
| 2026-04-28 05:30 | 23.17215 | -27.57211 | 44126 ft | 432 kts | 342° |
| 2026-04-28 05:31 | 23.23136 | -27.58084 | 44126 ft | 427 kts | 342° |
| 2026-04-28 05:31 | 23.29014 | -27.58960 | 44126 ft | 428 kts | 342° |
| 2026-04-28 05:32 | 23.34899 | -27.59831 | 44129 ft | 431 kts | 342° |
| 2026-04-28 05:32 | 23.40850 | -27.60712 | 44127 ft | 427 kts | 342° |
| 2026-04-28 05:33 | 23.46684 | -27.61581 | 44123 ft | 426 kts | 342° |
| 2026-04-28 05:33 | 23.52625 | -27.62466 | 44122 ft | 430 kts | 342° |
| 2026-04-28 05:34 | 23.58514 | -27.63338 | 44120 ft | 428 kts | 342° |
| 2026-04-28 05:34 | 23.64393 | -27.64215 | 44127 ft | 425 kts | 342° |
| 2026-04-28 05:35 | 23.70267 | -27.65094 | 44129 ft | 428 kts | 342° |
| 2026-04-28 05:35 | 23.76188 | -27.65975 | 44129 ft | 429 kts | 342° |
| 2026-04-28 05:36 | 23.82074 | -27.66853 | 44130 ft | 426 kts | 342° |
| 2026-04-28 05:36 | 23.87940 | -27.67734 | 44131 ft | 427 kts | 342° |
| 2026-04-28 05:37 | 23.93851 | -27.68618 | 44129 ft | 430 kts | 342° |
| 2026-04-28 05:37 | 23.99761 | -27.69499 | 44119 ft | 426 kts | 342° |
| 2026-04-28 05:38 | 24.05621 | -27.70381 | 44127 ft | 425 kts | 342° |
| 2026-04-28 05:38 | 24.11513 | -27.71266 | 44126 ft | 429 kts | 342° |
| 2026-04-28 05:39 | 24.17445 | -27.72155 | 44124 ft | 429 kts | 342° |
| 2026-04-28 05:39 | 24.23334 | -27.73039 | 44134 ft | 425 kts | 342° |
| 2026-04-28 05:40 | 24.29199 | -27.73926 | 44130 ft | 427 kts | 342° |
| 2026-04-28 05:40 | 24.35118 | -27.74815 | 44131 ft | 431 kts | 342° |
| 2026-04-28 05:41 | 24.41030 | -27.75704 | 44128 ft | 427 kts | 342° |
| 2026-04-28 05:41 | 24.46896 | -27.76592 | 44133 ft | 426 kts | 342° |
| 2026-04-28 05:42 | 24.52799 | -27.77485 | 44132 ft | 430 kts | 343° |
| 2026-04-28 05:42 | 24.58689 | -27.78371 | 44130 ft | 428 kts | 342° |
| 2026-04-28 05:43 | 24.64559 | -27.79262 | 44135 ft | 425 kts | 342° |
| 2026-04-28 05:43 | 24.70443 | -27.80156 | 44135 ft | 429 kts | 343° |
| 2026-04-28 05:44 | 24.76364 | -27.81049 | 44133 ft | 428 kts | 343° |
| 2026-04-28 05:44 | 24.82243 | -27.81942 | 44137 ft | 425 kts | 343° |
| 2026-04-28 05:45 | 24.88109 | -27.82836 | 44136 ft | 427 kts | 343° |
| 2026-04-28 05:45 | 24.94019 | -27.83733 | 44131 ft | 430 kts | 343° |
| 2026-04-28 05:46 | 24.99916 | -27.84629 | 44130 ft | 426 kts | 343° |
| 2026-04-28 05:46 | 25.05784 | -27.85526 | 44145 ft | 426 kts | 343° |
| 2026-04-28 05:47 | 25.11682 | -27.86425 | 44134 ft | 430 kts | 343° |
| 2026-04-28 05:47 | 25.17598 | -27.87325 | 44139 ft | 427 kts | 343° |
| 2026-04-28 05:48 | 25.23427 | -27.88218 | 44141 ft | 425 kts | 343° |
| 2026-04-28 05:48 | 25.29306 | -27.89119 | 44140 ft | 429 kts | 343° |
| 2026-04-28 05:49 | 25.35233 | -27.90024 | 44135 ft | 430 kts | 343° |
| 2026-04-28 05:49 | 25.41125 | -27.90926 | 44138 ft | 425 kts | 343° |
| 2026-04-28 05:50 | 25.47001 | -27.91832 | 44140 ft | 428 kts | 343° |
| 2026-04-28 05:50 | 25.52925 | -27.92738 | 44135 ft | 429 kts | 343° |
| 2026-04-28 05:51 | 25.58815 | -27.93642 | 44137 ft | 425 kts | 343° |
| 2026-04-28 05:51 | 25.64683 | -27.94549 | 44144 ft | 428 kts | 343° |
| 2026-04-28 05:52 | 25.70605 | -27.95459 | 44140 ft | 430 kts | 344° |
| 2026-04-28 05:52 | 25.76508 | -27.96367 | 44139 ft | 426 kts | 343° |
| 2026-04-28 05:53 | 25.82375 | -27.97275 | 44137 ft | 426 kts | 344° |
| 2026-04-28 05:53 | 25.88276 | -27.98187 | 44142 ft | 430 kts | 344° |
| 2026-04-28 05:54 | 25.93198 | -27.98945 | 44136 ft | 428 kts | 344° |
| 2026-04-28 05:54 | 26.00020 | -28.00005 | 44133 ft | 424 kts | 343° |
| 2026-04-28 05:55 | 26.05848 | -28.01122 | 44137 ft | 427 kts | 342° |
| 2026-04-28 05:55 | 26.10768 | -28.02055 | 44133 ft | 427 kts | 342° |
| 2026-04-28 05:56 | 26.16564 | -28.03164 | 44132 ft | 424 kts | 342° |
| 2026-04-28 05:56 | 26.22376 | -28.04280 | 44131 ft | 425 kts | 342° |
| 2026-04-28 05:57 | 26.28238 | -28.05402 | 44134 ft | 429 kts | 342° |
| 2026-04-28 05:57 | 26.34104 | -28.06525 | 44134 ft | 426 kts | 342° |
| 2026-04-28 05:58 | 26.39916 | -28.07644 | 44127 ft | 424 kts | 342° |
| 2026-04-28 05:58 | 26.45759 | -28.08769 | 44132 ft | 428 kts | 342° |
| 2026-04-28 05:59 | 26.51649 | -28.09900 | 44133 ft | 429 kts | 342° |
| 2026-04-28 05:59 | 26.57505 | -28.11028 | 44130 ft | 425 kts | 342° |
| 2026-04-28 06:00 | 26.63341 | -28.12157 | 44128 ft | 428 kts | 342° |
| 2026-04-28 06:00 | 26.69232 | -28.13293 | 44126 ft | 431 kts | 343° |
| 2026-04-28 06:01 | 26.75110 | -28.14426 | 44127 ft | 426 kts | 343° |
| 2026-04-28 06:01 | 26.80952 | -28.15560 | 44122 ft | 428 kts | 343° |
| 2026-04-28 06:02 | 26.86843 | -28.16700 | 44122 ft | 431 kts | 343° |
| 2026-04-28 06:02 | 26.92726 | -28.17838 | 44121 ft | 427 kts | 343° |
| 2026-04-28 06:03 | 26.98568 | -28.18975 | 44126 ft | 427 kts | 343° |
| 2026-04-28 06:03 | 27.04456 | -28.20119 | 44126 ft | 431 kts | 343° |
| 2026-04-28 06:04 | 27.10360 | -28.21264 | 44123 ft | 428 kts | 343° |
| 2026-04-28 06:04 | 27.16217 | -28.22408 | 44126 ft | 428 kts | 343° |
| 2026-04-28 06:05 | 27.22073 | -28.23550 | 44115 ft | 432 kts | 343° |
| 2026-04-28 06:05 | 27.27988 | -28.24701 | 44114 ft | 429 kts | 343° |
| 2026-04-28 06:06 | 27.33854 | -28.25849 | 44115 ft | 428 kts | 343° |
| 2026-04-28 06:06 | 27.39759 | -28.27005 | 44125 ft | 433 kts | 343° |
| 2026-04-28 06:07 | 27.45690 | -28.28162 | 44125 ft | 430 kts | 343° |
| 2026-04-28 06:07 | 27.51567 | -28.29316 | 44123 ft | 428 kts | 343° |
| 2026-04-28 06:08 | 27.57463 | -28.30475 | 44117 ft | 432 kts | 343° |
| 2026-04-28 06:08 | 27.63393 | -28.31636 | 44119 ft | 432 kts | 343° |
| 2026-04-28 06:09 | 27.69285 | -28.32795 | 44115 ft | 428 kts | 343° |
| 2026-04-28 06:09 | 27.75180 | -28.33958 | 44112 ft | 432 kts | 343° |
| 2026-04-28 06:10 | 27.81127 | -28.35128 | 44114 ft | 433 kts | 343° |
| 2026-04-28 06:10 | 27.87029 | -28.36291 | 44113 ft | 429 kts | 343° |
| 2026-04-28 06:11 | 27.92921 | -28.37458 | 44111 ft | 432 kts | 343° |
| 2026-04-28 06:11 | 27.98821 | -28.38622 | 44110 ft | 432 kts | 344° |
| 2026-04-28 06:12 | 28.04722 | -28.39790 | 44104 ft | 429 kts | 343° |
| 2026-04-28 06:12 | 28.10602 | -28.40957 | 44108 ft | 431 kts | 344° |
| 2026-04-28 06:13 | 28.16537 | -28.42133 | 44105 ft | 434 kts | 344° |
| 2026-04-28 06:13 | 28.22454 | -28.43307 | 44107 ft | 431 kts | 344° |
| 2026-04-28 06:14 | 28.28342 | -28.44479 | 44103 ft | 429 kts | 344° |
| 2026-04-28 06:14 | 28.34255 | -28.45657 | 44106 ft | 434 kts | 344° |
| 2026-04-28 06:15 | 28.40205 | -28.46840 | 44104 ft | 433 kts | 344° |
| 2026-04-28 06:15 | 28.46112 | -28.48019 | 44099 ft | 429 kts | 344° |
| 2026-04-28 06:16 | 28.52017 | -28.49201 | 44103 ft | 433 kts | 344° |
| 2026-04-28 06:16 | 28.57978 | -28.50390 | 44093 ft | 435 kts | 344° |
| 2026-04-28 06:17 | 28.63906 | -28.51576 | 44096 ft | 431 kts | 344° |
| 2026-04-28 06:18 | 28.72792 | -28.53360 | 44103 ft | 435 kts | 344° |
| 2026-04-28 06:18 | 28.78761 | -28.54556 | 44090 ft | 434 kts | 344° |
| 2026-04-28 06:19 | 28.84642 | -28.55739 | 44098 ft | 431 kts | 344° |
| 2026-04-28 06:19 | 28.90585 | -28.56936 | 44095 ft | 435 kts | 344° |
| 2026-04-28 06:20 | 28.96562 | -28.58138 | 44094 ft | 435 kts | 344° |
| 2026-04-28 06:20 | 29.02496 | -28.59335 | 44092 ft | 432 kts | 344° |
| 2026-04-28 06:21 | 29.08451 | -28.60540 | 44090 ft | 437 kts | 344° |
| 2026-04-28 06:21 | 29.14440 | -28.61747 | 44089 ft | 435 kts | 344° |
| 2026-04-28 06:22 | 29.20376 | -28.62950 | 44086 ft | 432 kts | 344° |
| 2026-04-28 06:22 | 29.26331 | -28.64159 | 44088 ft | 437 kts | 344° |
| 2026-04-28 06:23 | 29.32334 | -28.65374 | 44086 ft | 436 kts | 344° |
| 2026-04-28 06:23 | 29.38281 | -28.66582 | 44083 ft | 433 kts | 344° |
| 2026-04-28 06:24 | 29.44225 | -28.67793 | 44083 ft | 436 kts | 344° |
| 2026-04-28 06:24 | 29.50222 | -28.69013 | 44081 ft | 437 kts | 344° |
| 2026-04-28 06:25 | 29.56192 | -28.70229 | 44081 ft | 434 kts | 344° |
| 2026-04-28 06:25 | 29.62132 | -28.71443 | 44082 ft | 434 kts | 344° |
| 2026-04-28 06:26 | 29.68121 | -28.72667 | 44080 ft | 439 kts | 344° |
| 2026-04-28 06:26 | 29.74079 | -28.73883 | 44081 ft | 436 kts | 344° |
| 2026-04-28 06:27 | 29.80028 | -28.75104 | 44082 ft | 434 kts | 344° |
| 2026-04-28 06:27 | 29.86015 | -28.76333 | 44082 ft | 439 kts | 344° |
| 2026-04-28 06:28 | 29.92014 | -28.77561 | 44078 ft | 436 kts | 344° |
| 2026-04-28 06:28 | 29.97972 | -28.78788 | 44075 ft | 434 kts | 344° |
| 2026-04-28 06:29 | 30.03930 | -28.80015 | 44070 ft | 438 kts | 344° |
| 2026-04-28 06:29 | 30.09947 | -28.81254 | 44074 ft | 439 kts | 344° |
| 2026-04-28 06:30 | 30.15928 | -28.82487 | 44076 ft | 435 kts | 344° |
| 2026-04-28 06:30 | 30.21898 | -28.83724 | 44078 ft | 438 kts | 344° |
| 2026-04-28 06:31 | 30.27918 | -28.84966 | 44077 ft | 439 kts | 344° |
| 2026-04-28 06:31 | 30.33901 | -28.86205 | 44070 ft | 435 kts | 344° |
| 2026-04-28 06:32 | 30.39877 | -28.87447 | 44077 ft | 438 kts | 344° |
| 2026-04-28 06:32 | 30.45863 | -28.88688 | 44074 ft | 439 kts | 344° |
| 2026-04-28 06:33 | 30.51856 | -28.89933 | 44078 ft | 436 kts | 344° |
| 2026-04-28 06:33 | 30.57820 | -28.91176 | 44072 ft | 437 kts | 344° |
| 2026-04-28 06:34 | 30.63832 | -28.92429 | 44066 ft | 441 kts | 344° |
| 2026-04-28 06:34 | 30.69846 | -28.93682 | 44070 ft | 437 kts | 344° |
| 2026-04-28 06:35 | 30.75829 | -28.94934 | 44068 ft | 437 kts | 344° |
| 2026-04-28 06:35 | 30.81839 | -28.96192 | 44065 ft | 441 kts | 344° |
| 2026-04-28 06:36 | 30.87861 | -28.97450 | 44067 ft | 438 kts | 344° |
| 2026-04-28 06:36 | 30.93845 | -28.98707 | 44074 ft | 436 kts | 344° |
| 2026-04-28 06:37 | 30.99874 | -28.99884 | 44067 ft | 445 kts | 349° |
| 2026-04-28 06:37 | 31.06109 | -28.99986 | 44068 ft | 447 kts | 354° |
| 2026-04-28 06:38 | 31.12269 | -29.00006 | 44065 ft | 444 kts | 354° |
| 2026-04-28 06:38 | 31.18484 | -28.99999 | 44068 ft | 449 kts | 354° |
| 2026-04-28 06:39 | 31.24744 | -29.00000 | 44067 ft | 449 kts | 354° |
| 2026-04-28 06:39 | 31.30959 | -28.99999 | 44070 ft | 446 kts | 354° |
| 2026-04-28 06:40 | 31.37167 | -29.00001 | 44070 ft | 448 kts | 354° |
| 2026-04-28 06:40 | 31.43423 | -29.00001 | 44073 ft | 451 kts | 354° |
| 2026-04-28 06:41 | 31.49676 | -28.99999 | 44068 ft | 448 kts | 354° |
| 2026-04-28 06:41 | 31.55891 | -29.00000 | 44069 ft | 446 kts | 354° |
| 2026-04-28 06:42 | 31.62117 | -29.00002 | 44068 ft | 450 kts | 354° |
| 2026-04-28 06:42 | 31.68392 | -28.99999 | 44073 ft | 450 kts | 354° |
| 2026-04-28 06:43 | 31.74630 | -28.99999 | 44075 ft | 447 kts | 354° |
| 2026-04-28 06:43 | 31.80864 | -29.00002 | 44070 ft | 450 kts | 354° |
| 2026-04-28 06:44 | 31.86082 | -29.00000 | 44073 ft | 452 kts | 354° |
| 2026-04-28 06:44 | 31.93408 | -28.99999 | 44069 ft | 448 kts | 354° |
| 2026-04-28 06:45 | 31.99645 | -29.00001 | 44070 ft | 450 kts | 354° |
| 2026-04-28 06:45 | 32.04864 | -29.00001 | 44074 ft | 453 kts | 354° |
| 2026-04-28 06:46 | 32.11151 | -28.99998 | 44065 ft | 450 kts | 354° |
| 2026-04-28 06:46 | 32.17402 | -29.00001 | 44069 ft | 449 kts | 354° |
| 2026-04-28 06:47 | 32.23690 | -29.00001 | 44069 ft | 454 kts | 354° |
| 2026-04-28 06:47 | 32.29995 | -28.99998 | 44070 ft | 451 kts | 354° |
| 2026-04-28 06:48 | 32.36254 | -29.00000 | 44068 ft | 449 kts | 354° |
| 2026-04-28 06:48 | 32.42488 | -29.00001 | 44066 ft | 453 kts | 354° |
| 2026-04-28 06:49 | 32.48807 | -29.00000 | 44068 ft | 455 kts | 354° |
| 2026-04-28 06:49 | 32.55124 | -28.99999 | 44067 ft | 452 kts | 354° |
| 2026-04-28 06:50 | 32.61398 | -29.00000 | 44066 ft | 450 kts | 354° |
| 2026-04-28 06:50 | 32.67686 | -29.00002 | 44064 ft | 454 kts | 354° |
| 2026-04-28 06:51 | 32.74020 | -28.99999 | 44065 ft | 454 kts | 354° |
| 2026-04-28 06:51 | 32.80316 | -28.99999 | 44053 ft | 451 kts | 354° |
| 2026-04-28 06:52 | 32.86610 | -29.00002 | 44063 ft | 455 kts | 354° |
| 2026-04-28 06:52 | 32.92959 | -28.99999 | 44060 ft | 456 kts | 354° |
| 2026-04-28 06:53 | 32.99275 | -28.99999 | 44056 ft | 452 kts | 354° |
| 2026-04-28 06:53 | 33.05582 | -29.00002 | 44067 ft | 455 kts | 354° |
| 2026-04-28 06:54 | 33.11939 | -29.00000 | 44055 ft | 457 kts | 354° |
| 2026-04-28 06:54 | 33.18241 | -28.99999 | 44062 ft | 454 kts | 354° |
| 2026-04-28 06:55 | 33.24594 | -29.00000 | 44058 ft | 453 kts | 354° |
| 2026-04-28 06:55 | 33.30922 | -29.00002 | 44060 ft | 458 kts | 354° |
| 2026-04-28 06:56 | 33.37298 | -28.99999 | 44061 ft | 457 kts | 354° |
| 2026-04-28 06:56 | 33.43637 | -29.00000 | 44059 ft | 454 kts | 354° |
| 2026-04-28 06:57 | 33.49926 | -29.00001 | 44056 ft | 457 kts | 354° |
| 2026-04-28 06:57 | 33.56319 | -29.00000 | 44057 ft | 460 kts | 354° |
| 2026-04-28 06:58 | 33.62688 | -28.99998 | 44054 ft | 456 kts | 354° |
| 2026-04-28 06:58 | 33.69029 | -29.00002 | 44052 ft | 458 kts | 354° |
| 2026-04-28 06:59 | 33.75441 | -29.00000 | 44056 ft | 460 kts | 354° |
| 2026-04-28 06:59 | 33.81830 | -28.99999 | 44052 ft | 458 kts | 354° |
| 2026-04-28 07:00 | 33.88194 | -29.00000 | 44055 ft | 458 kts | 354° |
| 2026-04-28 07:00 | 33.94596 | -29.00001 | 44051 ft | 462 kts | 354° |
| 2026-04-28 07:01 | 34.01035 | -28.99999 | 44051 ft | 461 kts | 354° |
| 2026-04-28 07:01 | 34.07435 | -29.00000 | 44052 ft | 459 kts | 354° |
| 2026-04-28 07:02 | 34.13836 | -29.00002 | 44053 ft | 463 kts | 354° |
| 2026-04-28 07:02 | 34.20304 | -29.00001 | 44053 ft | 466 kts | 354° |
| 2026-04-28 07:03 | 34.26719 | -28.99998 | 44052 ft | 462 kts | 354° |
| 2026-04-28 07:03 | 34.33148 | -29.00002 | 44050 ft | 464 kts | 354° |
| 2026-04-28 07:04 | 34.39632 | -29.00000 | 44045 ft | 467 kts | 354° |
| 2026-04-28 07:04 | 34.46113 | -28.99998 | 44048 ft | 463 kts | 354° |
| 2026-04-28 07:05 | 34.52544 | -29.00001 | 44049 ft | 464 kts | 354° |
| 2026-04-28 07:05 | 34.59035 | -29.00001 | 44044 ft | 468 kts | 354° |
| 2026-04-28 07:06 | 34.65529 | -28.99998 | 44041 ft | 465 kts | 354° |
| 2026-04-28 07:06 | 34.71985 | -29.00001 | 44048 ft | 465 kts | 354° |
| 2026-04-28 07:07 | 34.78493 | -29.00001 | 44039 ft | 469 kts | 354° |
| 2026-04-28 07:07 | 34.85000 | -28.99998 | 44039 ft | 466 kts | 354° |
| 2026-04-28 07:08 | 34.91428 | -29.00001 | 44035 ft | 465 kts | 354° |
| 2026-04-28 07:08 | 34.97968 | -29.00002 | 44037 ft | 470 kts | 354° |
| 2026-04-28 07:09 | 35.04458 | -28.99998 | 44036 ft | 467 kts | 354° |
| 2026-04-28 07:09 | 35.10948 | -29.00000 | 44032 ft | 466 kts | 354° |
| 2026-04-28 07:10 | 35.17455 | -29.00001 | 44033 ft | 470 kts | 354° |
| 2026-04-28 07:10 | 35.24012 | -29.00000 | 44032 ft | 471 kts | 354° |
| 2026-04-28 07:11 | 35.30546 | -28.99999 | 44031 ft | 468 kts | 354° |
| 2026-04-28 07:11 | 35.37045 | -29.00001 | 44031 ft | 469 kts | 354° |
| 2026-04-28 07:12 | 35.43601 | -29.00001 | 44028 ft | 473 kts | 354° |
| 2026-04-28 07:12 | 35.50175 | -28.99998 | 44031 ft | 471 kts | 354° |
| 2026-04-28 07:13 | 35.56709 | -29.00000 | 44025 ft | 468 kts | 354° |
| 2026-04-28 07:13 | 35.63241 | -29.00001 | 44024 ft | 471 kts | 354° |
| 2026-04-28 07:14 | 35.69828 | -29.00001 | 44024 ft | 474 kts | 354° |
| 2026-04-28 07:14 | 35.76388 | -28.99998 | 44019 ft | 470 kts | 354° |
| 2026-04-28 07:15 | 35.82920 | -29.00001 | 44031 ft | 470 kts | 354° |
| 2026-04-28 07:15 | 35.89499 | -29.00002 | 44022 ft | 475 kts | 354° |
| 2026-04-28 07:16 | 35.96100 | -28.99896 | 44021 ft | 476 kts | 360° |
| 2026-04-28 07:16 | 36.02605 | -28.98051 | 44024 ft | 487 kts | 16° |
| 2026-04-28 07:17 | 36.08751 | -28.94277 | 44014 ft | 497 kts | 23° |
| 2026-04-28 07:17 | 36.14858 | -28.90282 | 44019 ft | 495 kts | 23° |
| 2026-04-28 07:18 | 36.20918 | -28.86303 | 44017 ft | 492 kts | 23° |
| 2026-04-28 07:18 | 36.26980 | -28.82321 | 44023 ft | 496 kts | 23° |
| 2026-04-28 07:19 | 36.33083 | -28.78299 | 44021 ft | 495 kts | 24° |
| 2026-04-28 07:19 | 36.39147 | -28.74298 | 44020 ft | 492 kts | 24° |
| 2026-04-28 07:20 | 36.45200 | -28.70300 | 44017 ft | 495 kts | 24° |
| 2026-04-28 07:20 | 36.51260 | -28.66286 | 44018 ft | 496 kts | 24° |
| 2026-04-28 07:21 | 36.57326 | -28.62261 | 44018 ft | 492 kts | 24° |
| 2026-04-28 07:21 | 36.63375 | -28.58245 | 44022 ft | 495 kts | 24° |
| 2026-04-28 07:22 | 36.72494 | -28.52168 | 44012 ft | 494 kts | 24° |
| 2026-04-28 07:22 | 36.78541 | -28.48135 | 44017 ft | 493 kts | 24° |
| 2026-04-28 07:23 | 36.84608 | -28.44078 | 44016 ft | 496 kts | 24° |
| 2026-04-28 07:23 | 36.90704 | -28.39993 | 44014 ft | 496 kts | 24° |
| 2026-04-28 07:24 | 36.96771 | -28.35921 | 44017 ft | 493 kts | 24° |
| 2026-04-28 07:24 | 37.02809 | -28.31862 | 44016 ft | 492 kts | 25° |
| 2026-04-28 07:25 | 37.08859 | -28.27789 | 44013 ft | 496 kts | 25° |
| 2026-04-28 07:25 | 37.14965 | -28.23668 | 43532 ft | 502 kts | 25° |
| 2026-04-28 07:26 | 37.18023 | -28.21600 | 42885 ft | 496 kts | 25° |
| 2026-04-28 07:26 | 37.21049 | -28.19550 | 42230 ft | 494 kts | 25° |
| 2026-04-28 07:26 | 37.24087 | -28.17498 | 41579 ft | 498 kts | 25° |
| 2026-04-28 07:26 | 37.27152 | -28.15424 | 40923 ft | 503 kts | 25° |
| 2026-04-28 07:27 | 37.30212 | -28.13344 | 40269 ft | 493 kts | 25° |
| 2026-04-28 07:27 | 37.33166 | -28.11330 | 39638 ft | 473 kts | 25° |
| 2026-04-28 07:27 | 37.35973 | -28.09423 | 39032 ft | 457 kts | 25° |
| 2026-04-28 07:27 | 37.38737 | -28.07550 | 38394 ft | 447 kts | 25° |
| 2026-04-28 07:28 | 37.41460 | -28.05701 | 37797 ft | 445 kts | 25° |
| 2026-04-28 07:28 | 37.44228 | -28.03818 | 37207 ft | 459 kts | 25° |
| 2026-04-28 07:28 | 37.47049 | -28.01893 | 36601 ft | 461 kts | 25° |
| 2026-04-28 07:28 | 37.49860 | -27.99969 | 35995 ft | 459 kts | 26° |
| 2026-04-28 07:29 | 37.52661 | -27.98056 | 35390 ft | 458 kts | 26° |
| 2026-04-28 07:29 | 37.55472 | -27.96140 | 34790 ft | 460 kts | 26° |
| 2026-04-28 07:29 | 37.58293 | -27.94210 | 34179 ft | 462 kts | 26° |
| 2026-04-28 07:29 | 37.61124 | -27.92269 | 33527 ft | 463 kts | 26° |
| 2026-04-28 07:30 | 37.63944 | -27.90334 | 32920 ft | 461 kts | 26° |
| 2026-04-28 07:30 | 37.66765 | -27.88401 | 32307 ft | 462 kts | 26° |
| 2026-04-28 07:30 | 37.69603 | -27.86455 | 31696 ft | 466 kts | 26° |
| 2026-04-28 07:30 | 37.72457 | -27.84494 | 31081 ft | 467 kts | 26° |
| 2026-04-28 07:31 | 37.75306 | -27.82532 | 30467 ft | 466 kts | 26° |
| 2026-04-28 07:31 | 37.78149 | -27.80575 | 29813 ft | 465 kts | 26° |
| 2026-04-28 07:31 | 37.80992 | -27.78618 | 29187 ft | 467 kts | 27° |
| 2026-04-28 07:31 | 37.83859 | -27.76642 | 28574 ft | 471 kts | 27° |
| 2026-04-28 07:32 | 37.86747 | -27.74648 | 27950 ft | 472 kts | 27° |
| 2026-04-28 07:32 | 37.88651 | -27.73331 | 27535 ft | 472 kts | 27° |
| 2026-04-28 07:32 | 37.92501 | -27.70670 | 26704 ft | 472 kts | 27° |
| 2026-04-28 07:32 | 37.95399 | -27.68666 | 26082 ft | 477 kts | 27° |
| 2026-04-28 07:33 | 37.97332 | -27.67327 | 25659 ft | 478 kts | 27° |
| 2026-04-28 07:33 | 38.00248 | -27.65305 | 25031 ft | 478 kts | 27° |
| 2026-04-28 07:33 | 38.03161 | -27.63284 | 24406 ft | 478 kts | 27° |
| 2026-04-28 07:33 | 38.06085 | -27.61254 | 23777 ft | 481 kts | 27° |
| 2026-04-28 07:34 | 38.09029 | -27.59208 | 23082 ft | 483 kts | 27° |
| 2026-04-28 07:34 | 38.11968 | -27.57163 | 22444 ft | 481 kts | 28° |
| 2026-04-28 07:34 | 38.14910 | -27.55115 | 21806 ft | 483 kts | 28° |
| 2026-04-28 07:34 | 38.17846 | -27.53069 | 21170 ft | 479 kts | 28° |
| 2026-04-28 07:35 | 38.20759 | -27.51035 | 20540 ft | 476 kts | 28° |
| 2026-04-28 07:35 | 38.23646 | -27.49020 | 19914 ft | 471 kts | 28° |
| 2026-04-28 07:35 | 38.26508 | -27.47022 | 19288 ft | 467 kts | 28° |
| 2026-04-28 07:35 | 38.29343 | -27.45037 | 18687 ft | 463 kts | 28° |
| 2026-04-28 07:36 | 38.32154 | -27.43069 | 18046 ft | 459 kts | 28° |
| 2026-04-28 07:36 | 38.34932 | -27.41123 | 17437 ft | 454 kts | 28° |
| 2026-04-28 07:36 | 38.37686 | -27.39191 | 16839 ft | 450 kts | 28° |
| 2026-04-28 07:36 | 38.40417 | -27.37273 | 16248 ft | 446 kts | 28° |
| 2026-04-28 07:37 | 38.43121 | -27.35374 | 15663 ft | 442 kts | 28° |
| 2026-04-28 07:37 | 38.45806 | -27.33487 | 15074 ft | 438 kts | 28° |
| 2026-04-28 07:37 | 38.48462 | -27.31616 | 14512 ft | 430 kts | 28° |
| 2026-04-28 07:37 | 38.51007 | -27.29823 | 13961 ft | 404 kts | 28° |
| 2026-04-28 07:38 | 38.53381 | -27.28150 | 13414 ft | 376 kts | 28° |
| 2026-04-28 07:38 | 38.55590 | -27.26591 | 12932 ft | 350 kts | 28° |
| 2026-04-28 07:38 | 38.57660 | -27.25129 | 12485 ft | 331 kts | 28° |
| 2026-04-28 07:38 | 38.59660 | -27.23718 | 12055 ft | 328 kts | 28° |
| 2026-04-28 07:39 | 38.61618 | -27.22334 | 11628 ft | 314 kts | 28° |
| 2026-04-28 07:39 | 38.63486 | -27.21011 | 11227 ft | 301 kts | 28° |
| 2026-04-28 07:39 | 38.65297 | -27.19730 | 10839 ft | 297 kts | 28° |
| 2026-04-28 07:39 | 38.67125 | -27.18438 | 10441 ft | 303 kts | 28° |
| 2026-04-28 07:40 | 38.68974 | -27.17128 | 10029 ft | 302 kts | 28° |
| 2026-04-28 07:40 | 38.70782 | -27.15843 | 9606 ft | 291 kts | 28° |
| 2026-04-28 07:40 | 38.72518 | -27.14612 | 9228 ft | 280 kts | 28° |
| 2026-04-28 07:40 | 38.74175 | -27.13404 | 8814 ft | 276 kts | 34° |
| 2026-04-28 07:41 | 38.75734 | -27.11918 | 8417 ft | 276 kts | 36° |
| 2026-04-28 07:41 | 38.77284 | -27.10487 | 8113 ft | 273 kts | 36° |
| 2026-04-28 07:41 | 38.78765 | -27.09141 | 7997 ft | 257 kts | 36° |
| 2026-04-28 07:41 | 38.80265 | -27.07833 | 7991 ft | 266 kts | 30° |
| 2026-04-28 07:42 | 38.81915 | -27.06776 | 7996 ft | 263 kts | 23° |
| 2026-04-28 07:42 | 38.83595 | -27.05820 | 7996 ft | 266 kts | 22° |
| 2026-04-28 07:42 | 38.85302 | -27.04865 | 7830 ft | 267 kts | 22° |
| 2026-04-28 07:42 | 38.86995 | -27.03929 | 7659 ft | 263 kts | 22° |
| 2026-04-28 07:43 | 38.88666 | -27.03013 | 7482 ft | 260 kts | 22° |
| 2026-04-28 07:43 | 38.90329 | -27.02106 | 7307 ft | 260 kts | 22° |
| 2026-04-28 07:43 | 38.91995 | -27.01205 | 7136 ft | 260 kts | 22° |
| 2026-04-28 07:43 | 38.93660 | -27.00314 | 6968 ft | 259 kts | 20° |
| 2026-04-28 07:44 | 38.95416 | -27.00042 | 6766 ft | 254 kts | 348° |
| 2026-04-28 07:44 | 38.97047 | -27.00807 | 6589 ft | 248 kts | 328° |
| 2026-04-28 07:44 | 38.98553 | -27.01868 | 6427 ft | 246 kts | 326° |
| 2026-04-28 07:44 | 38.99992 | -27.03020 | 6233 ft | 238 kts | 314° |
| 2026-04-28 07:45 | 39.00941 | -27.04649 | 6041 ft | 222 kts | 290° |
| 2026-04-28 07:45 | 39.01398 | -27.06494 | 5855 ft | 215 kts | 276° |
| 2026-04-28 07:45 | 39.01646 | -27.08375 | 5674 ft | 211 kts | 268° |
| 2026-04-28 07:45 | 39.01609 | -27.10246 | 5498 ft | 208 kts | 258° |
| 2026-04-28 07:46 | 39.01390 | -27.12071 | 5319 ft | 205 kts | 252° |
| 2026-04-28 07:46 | 39.00911 | -27.13770 | 5137 ft | 200 kts | 236° |
| 2026-04-28 07:46 | 39.00134 | -27.15241 | 4971 ft | 199 kts | 229° |
| 2026-04-28 07:46 | 38.99299 | -27.16651 | 4804 ft | 197 kts | 229° |
| 2026-04-28 07:47 | 38.98464 | -27.18033 | 4652 ft | 193 kts | 226° |
| 2026-04-28 07:47 | 38.97597 | -27.19322 | 4650 ft | 189 kts | 224° |
| 2026-04-28 07:47 | 38.96770 | -27.20524 | 4637 ft | 169 kts | 224° |
| 2026-04-28 07:47 | 38.95989 | -27.21575 | 4619 ft | 159 kts | 221° |
| 2026-04-28 07:48 | 38.95192 | -27.22567 | 4606 ft | 160 kts | 219° |
| 2026-04-28 07:48 | 38.94311 | -27.23457 | 4438 ft | 160 kts | 208° |
| 2026-04-28 07:48 | 38.93335 | -27.24068 | 4267 ft | 151 kts | 200° |
| 2026-04-28 07:48 | 38.92397 | -27.24481 | 4123 ft | 136 kts | 192° |
| 2026-04-28 07:49 | 38.91519 | -27.24406 | 3941 ft | 121 kts | 172° |
| 2026-04-28 07:49 | 38.90747 | -27.24114 | 3778 ft | 115 kts | 165° |
| 2026-04-28 07:49 | 38.89996 | -27.23625 | 3576 ft | 124 kts | 155° |
| 2026-04-28 07:49 | 38.89313 | -27.22938 | 3373 ft | 126 kts | 146° |
| 2026-04-28 07:50 | 38.88662 | -27.22193 | 3161 ft | 125 kts | 147° |
| 2026-04-28 07:50 | 38.88006 | -27.21482 | 3005 ft | 120 kts | 148° |
| 2026-04-28 07:50 | 38.87354 | -27.20792 | 3009 ft | 123 kts | 149° |
| 2026-04-28 07:50 | 38.86722 | -27.20120 | 2986 ft | 118 kts | 149° |
| 2026-04-28 07:51 | 38.86075 | -27.19443 | 2803 ft | 119 kts | 148° |
| 2026-04-28 07:51 | 38.85455 | -27.18789 | 2561 ft | 110 kts | 149° |
| 2026-04-28 07:51 | 38.84879 | -27.18183 | 2339 ft | 105 kts | 149° |
| 2026-04-28 07:51 | 38.84319 | -27.17597 | 2096 ft | 104 kts | 149° |
| 2026-04-28 07:52 | 38.83762 | -27.17014 | 1859 ft | 103 kts | 149° |
| 2026-04-28 07:52 | 38.83205 | -27.16431 | 1631 ft | 103 kts | 148° |
| 2026-04-28 07:52 | 38.82660 | -27.15858 | 1466 ft | 101 kts | 148° |
| 2026-04-28 07:52 | 38.82107 | -27.15281 | 1325 ft | 105 kts | 149° |
| 2026-04-28 07:53 | 38.81536 | -27.14683 | 1183 ft | 106 kts | 148° |
| 2026-04-28 07:53 | 38.80971 | -27.14091 | 1033 ft | 104 kts | 146° |
| 2026-04-28 07:53 | 38.80410 | -27.13503 | 896 ft | 104 kts | 145° |
| 2026-04-28 07:53 | 38.79849 | -27.12915 | 754 ft | 105 kts | 143° |
| 2026-04-28 07:54 | 38.79292 | -27.12313 | 632 ft | 104 kts | 140° |
| 2026-04-28 07:54 | 38.79057 | -27.12059 | 580 ft | 103 kts | 143° |
| 2026-04-28 08:00 | 38.78905 | -27.11902 | 548 ft | 104 kts | 143° |
| 2026-04-28 08:01 | 38.78345 | -27.11355 | 411 ft | 95 kts | 144° |
| 2026-04-28 08:01 | 38.77775 | -27.10735 | 270 ft | 112 kts | 139° |
| 2026-04-28 08:01 | 38.77241 | -27.10178 | 188 ft | 84 kts | 142° |
| 2026-04-28 08:01 | 38.76844 | -27.09766 | 170 ft | 60 kts | 141° |
| 2026-04-28 08:02 | 38.76569 | -27.09478 | 172 ft | 45 kts | 141° |
| 2026-04-28 08:02 | 38.76347 | -27.09246 | 173 ft | 38 kts | 141° |
| 2026-04-28 08:02 | 38.76202 | -27.09099 | 176 ft | 22 kts | 141° |
| 2026-04-28 08:02 | 38.76088 | -27.08984 | 177 ft | 19 kts | 141° |
| 2026-04-28 08:03 | 38.75985 | -27.08896 | 179 ft | 17 kts | 166° |
| 2026-04-28 08:03 | 38.75875 | -27.08898 | 178 ft | 12 kts | 184° |
| 2026-04-28 08:03 | 38.75788 | -27.08906 | 178 ft | 12 kts | 186° |
| 2026-04-28 08:03 | 38.75724 | -27.08912 | 178 ft | 5 kts | 180° |
| 2026-04-28 08:04 | 38.75686 | -27.08894 | 178 ft | 6 kts | 146° |
| 2026-04-28 08:04 | 38.75660 | -27.08853 | 179 ft | 6 kts | 106° |
| 2026-04-28 08:04 | 38.75657 | -27.08820 | 179 ft | 1 kts | 92° |
| 2026-04-28 08:04 | 38.75657 | -27.08818 | 179 ft | 1 kts | 90° |
| 2026-04-28 08:05 | 38.75657 | -27.08806 | 179 ft | 2 kts | 92° |
| 2026-04-28 08:05 | 38.75657 | -27.08796 | 179 ft | 0 kts | 93° |